sensor_id;sensor_type;location;lat;lon;timestamp;pressure;altitude;pressure_sealevel;temperature;humidity
36242;BME280;22283;42.748;12.732;2024-02-14T00:02:33;98640.09;;;2.70;100.00
36242;BME280;22283;42.748;12.732;2024-02-14T00:07:33;98644.38;;;2.46;100.00
36242;BME280;22283;42.748;12.732;2024-02-14T00:12:35;98648.94;;;2.39;100.00
36242;BME280;22283;42.748;12.732;2024-02-14T00:17:36;98648.41;;;2.28;100.00
36242;BME280;22283;42.748;12.732;2024-02-14T00:22:36;98646.88;;;2.21;100.00
36242;BME280;22283;42.748;12.732;2024-02-14T00:27:37;98652.31;;;2.15;100.00
36242;BME280;22283;42.748;12.732;2024-02-14T00:32:37;98667.97;;;2.15;100.00
36242;BME280;22283;42.748;12.732;2024-02-14T00:37:38;98657.44;;;2.18;100.00
36242;BME280;22283;42.748;12.732;2024-02-14T00:42:39;98661.78;;;2.17;100.00
36242;BME280;22283;42.748;12.732;2024-02-14T00:47:40;98658.94;;;2.25;100.00
36242;BME280;22283;42.748;12.732;2024-02-14T00:52:40;98686.00;;;2.22;100.00
36242;BME280;22283;42.748;12.732;2024-02-14T00:57:41;98688.47;;;2.27;100.00
36242;BME280;22283;42.748;12.732;2024-02-14T01:02:43;98690.09;;;2.03;100.00
36242;BME280;22283;42.748;12.732;2024-02-14T01:07:43;98691.97;;;1.98;100.00
36242;BME280;22283;42.748;12.732;2024-02-14T01:12:46;98692.47;;;2.11;100.00
36242;BME280;22283;42.748;12.732;2024-02-14T01:17:47;98703.44;;;1.92;100.00
36242;BME280;22283;42.748;12.732;2024-02-14T01:22:47;98705.41;;;1.84;100.00
36242;BME280;22283;42.748;12.732;2024-02-14T01:27:48;98713.72;;;1.67;100.00
36242;BME280;22283;42.748;12.732;2024-02-14T01:32:49;98713.28;;;1.52;100.00
36242;BME280;22283;42.748;12.732;2024-02-14T01:37:49;98714.44;;;1.41;100.00
36242;BME280;22283;42.748;12.732;2024-02-14T01:42:52;98726.97;;;1.60;100.00
36242;BME280;22283;42.748;12.732;2024-02-14T01:47:53;98743.81;;;1.48;100.00
36242;BME280;22283;42.748;12.732;2024-02-14T01:52:54;98745.72;;;1.41;100.00
36242;BME280;22283;42.748;12.732;2024-02-14T01:57:56;98732.22;;;1.26;100.00
36242;BME280;22283;42.748;12.732;2024-02-14T02:02:57;98740.94;;;1.25;100.00
36242;BME280;22283;42.748;12.732;2024-02-14T02:07:58;98737.38;;;1.29;100.00
36242;BME280;22283;42.748;12.732;2024-02-14T02:12:59;98751.25;;;1.29;100.00
36242;BME280;22283;42.748;12.732;2024-02-14T02:18:00;98742.44;;;1.35;100.00
36242;BME280;22283;42.748;12.732;2024-02-14T02:23:02;98730.78;;;1.46;100.00
36242;BME280;22283;42.748;12.732;2024-02-14T02:28:03;98736.34;;;1.67;100.00
36242;BME280;22283;42.748;12.732;2024-02-14T02:33:04;98750.41;;;1.61;100.00
36242;BME280;22283;42.748;12.732;2024-02-14T02:38:05;98757.38;;;1.28;100.00
36242;BME280;22283;42.748;12.732;2024-02-14T02:43:05;98757.56;;;0.85;100.00
36242;BME280;22283;42.748;12.732;2024-02-14T02:48:06;98771.13;;;0.62;100.00
36242;BME280;22283;42.748;12.732;2024-02-14T02:53:07;98753.94;;;0.55;100.00
36242;BME280;22283;42.748;12.732;2024-02-14T02:58:07;98764.94;;;0.67;100.00
36242;BME280;22283;42.748;12.732;2024-02-14T03:03:08;98768.91;;;0.82;100.00
36242;BME280;22283;42.748;12.732;2024-02-14T03:08:09;98779.34;;;0.82;100.00
36242;BME280;22283;42.748;12.732;2024-02-14T03:13:15;98763.22;;;0.66;100.00
36242;BME280;22283;42.748;12.732;2024-02-14T03:18:17;98781.94;;;0.82;100.00
36242;BME280;22283;42.748;12.732;2024-02-14T03:23:18;98767.50;;;0.69;100.00
36242;BME280;22283;42.748;12.732;2024-02-14T03:28:18;98779.69;;;0.67;100.00
36242;BME280;22283;42.748;12.732;2024-02-14T03:33:19;98778.94;;;0.62;100.00
36242;BME280;22283;42.748;12.732;2024-02-14T03:38:26;98790.31;;;0.58;100.00
36242;BME280;22283;42.748;12.732;2024-02-14T03:43:27;98804.31;;;0.54;100.00
36242;BME280;22283;42.748;12.732;2024-02-14T03:48:28;98794.09;;;0.44;100.00
36242;BME280;22283;42.748;12.732;2024-02-14T03:53:28;98802.44;;;0.59;100.00
36242;BME280;22283;42.748;12.732;2024-02-14T03:58:29;98809.44;;;0.57;100.00
36242;BME280;22283;42.748;12.732;2024-02-14T04:03:29;98812.41;;;0.40;100.00
36242;BME280;22283;42.748;12.732;2024-02-14T04:08:30;98819.66;;;0.26;100.00
36242;BME280;22283;42.748;12.732;2024-02-14T04:13:31;98806.84;;;0.15;100.00
36242;BME280;22283;42.748;12.732;2024-02-14T04:18:31;98816.09;;;0.30;100.00
36242;BME280;22283;42.748;12.732;2024-02-14T04:23:32;98817.09;;;0.24;100.00
36242;BME280;22283;42.748;12.732;2024-02-14T04:28:32;98812.66;;;0.28;100.00
36242;BME280;22283;42.748;12.732;2024-02-14T04:33:33;98813.38;;;0.36;100.00
36242;BME280;22283;42.748;12.732;2024-02-14T04:38:33;98812.94;;;0.56;100.00
36242;BME280;22283;42.748;12.732;2024-02-14T04:43:34;98813.19;;;0.84;100.00
36242;BME280;22283;42.748;12.732;2024-02-14T04:48:35;98812.16;;;0.89;100.00
36242;BME280;22283;42.748;12.732;2024-02-14T04:53:37;98815.09;;;0.76;100.00
36242;BME280;22283;42.748;12.732;2024-02-14T04:58:37;98814.78;;;0.51;100.00
36242;BME280;22283;42.748;12.732;2024-02-14T05:03:38;98812.59;;;0.31;100.00
36242;BME280;22283;42.748;12.732;2024-02-14T05:08:39;98815.44;;;0.20;100.00
36242;BME280;22283;42.748;12.732;2024-02-14T05:13:39;98813.91;;;0.10;100.00
36242;BME280;22283;42.748;12.732;2024-02-14T05:18:41;98801.03;;;0.02;100.00
36242;BME280;22283;42.748;12.732;2024-02-14T05:23:42;98807.84;;;0.08;100.00
36242;BME280;22283;42.748;12.732;2024-02-14T05:28:42;98806.94;;;0.10;100.00
36242;BME280;22283;42.748;12.732;2024-02-14T05:33:43;98786.63;;;0.29;100.00
36242;BME280;22283;42.748;12.732;2024-02-14T05:38:44;98801.47;;;0.24;100.00
36242;BME280;22283;42.748;12.732;2024-02-14T05:43:44;98814.72;;;0.12;100.00
36242;BME280;22283;42.748;12.732;2024-02-14T05:48:44;98806.19;;;0.05;100.00
36242;BME280;22283;42.748;12.732;2024-02-14T05:53:45;98805.53;;;0.37;100.00
36242;BME280;22283;42.748;12.732;2024-02-14T05:58:45;98797.84;;;0.31;100.00
36242;BME280;22283;42.748;12.732;2024-02-14T06:03:46;98813.53;;;0.28;100.00
36242;BME280;22283;42.748;12.732;2024-02-14T06:08:46;98810.09;;;0.26;100.00
36242;BME280;22283;42.748;12.732;2024-02-14T06:13:48;98817.84;;;0.28;100.00
36242;BME280;22283;42.748;12.732;2024-02-14T06:18:48;98817.84;;;0.28;100.00
36242;BME280;22283;42.748;12.732;2024-02-14T06:23:49;98826.75;;;0.17;100.00
36242;BME280;22283;42.748;12.732;2024-02-14T06:28:49;98837.03;;;0.23;100.00
36242;BME280;22283;42.748;12.732;2024-02-14T06:34:02;98829.16;;;0.28;100.00
36242;BME280;22283;42.748;12.732;2024-02-14T06:39:04;98830.84;;;0.29;100.00
36242;BME280;22283;42.748;12.732;2024-02-14T06:44:04;98848.13;;;0.33;100.00
36242;BME280;22283;42.748;12.732;2024-02-14T06:49:05;98832.44;;;0.36;100.00
36242;BME280;22283;42.748;12.732;2024-02-14T06:54:05;98863.00;;;0.68;100.00
36242;BME280;22283;42.748;12.732;2024-02-14T06:59:06;98862.28;;;1.01;100.00
36242;BME280;22283;42.748;12.732;2024-02-14T07:04:06;98865.69;;;1.40;100.00
36242;BME280;22283;42.748;12.732;2024-02-14T07:09:07;98880.97;;;1.89;100.00
36242;BME280;22283;42.748;12.732;2024-02-14T07:14:07;98868.41;;;2.04;100.00
36242;BME280;22283;42.748;12.732;2024-02-14T07:19:08;98884.31;;;2.26;100.00
36242;BME280;22283;42.748;12.732;2024-02-14T07:24:08;98881.97;;;2.18;100.00
36242;BME280;22283;42.748;12.732;2024-02-14T07:29:09;98900.34;;;2.44;100.00
36242;BME280;22283;42.748;12.732;2024-02-14T07:34:09;98901.38;;;2.70;100.00
36242;BME280;22283;42.748;12.732;2024-02-14T07:39:10;98891.97;;;2.92;100.00
36242;BME280;22283;42.748;12.732;2024-02-14T07:44:11;98896.38;;;3.20;100.00
36242;BME280;22283;42.748;12.732;2024-02-14T07:49:12;98901.56;;;3.50;100.00
36242;BME280;22283;42.748;12.732;2024-02-14T07:54:13;98906.88;;;3.73;100.00
36242;BME280;22283;42.748;12.732;2024-02-14T07:59:14;98911.13;;;4.02;100.00
36242;BME280;22283;42.748;12.732;2024-02-14T08:04:14;98923.28;;;4.30;100.00
36242;BME280;22283;42.748;12.732;2024-02-14T08:09:16;98908.63;;;4.49;100.00
36242;BME280;22283;42.748;12.732;2024-02-14T08:14:16;98927.25;;;4.65;98.73
36242;BME280;22283;42.748;12.732;2024-02-14T08:19:17;98916.91;;;4.85;95.91
36242;BME280;22283;42.748;12.732;2024-02-14T08:24:18;98899.34;;;4.87;93.44
36242;BME280;22283;42.748;12.732;2024-02-14T08:29:19;98899.41;;;5.31;92.28
36242;BME280;22283;42.748;12.732;2024-02-14T08:34:20;98908.78;;;5.59;91.81
36242;BME280;22283;42.748;12.732;2024-02-14T08:39:20;98906.09;;;5.60;90.01
36242;BME280;22283;42.748;12.732;2024-02-14T08:44:21;98911.19;;;5.85;89.69
36242;BME280;22283;42.748;12.732;2024-02-14T08:49:21;98916.09;;;5.95;87.74
36242;BME280;22283;42.748;12.732;2024-02-14T08:54:23;98904.06;;;6.09;86.47
36242;BME280;22283;42.748;12.732;2024-02-14T08:59:23;98914.31;;;6.56;85.50
36242;BME280;22283;42.748;12.732;2024-02-14T09:04:24;98912.50;;;6.77;84.23
36242;BME280;22283;42.748;12.732;2024-02-14T09:09:24;98909.38;;;7.07;82.88
36242;BME280;22283;42.748;12.732;2024-02-14T09:14:25;98903.75;;;7.33;81.06
36242;BME280;22283;42.748;12.732;2024-02-14T09:19:26;98887.16;;;7.31;77.29
36242;BME280;22283;42.748;12.732;2024-02-14T09:24:27;98887.84;;;7.54;77.36
36242;BME280;22283;42.748;12.732;2024-02-14T09:29:28;98894.63;;;7.77;77.72
36242;BME280;22283;42.748;12.732;2024-02-14T09:34:29;98884.88;;;7.96;76.05
36242;BME280;22283;42.748;12.732;2024-02-14T09:39:30;98893.63;;;8.14;74.58
36242;BME280;22283;42.748;12.732;2024-02-14T09:44:31;98894.53;;;8.30;73.79
36242;BME280;22283;42.748;12.732;2024-02-14T09:49:34;98901.19;;;8.55;73.52
36242;BME280;22283;42.748;12.732;2024-02-14T09:54:36;98904.91;;;8.68;72.64
36242;BME280;22283;42.748;12.732;2024-02-14T09:59:39;98902.56;;;8.79;68.17
36242;BME280;22283;42.748;12.732;2024-02-14T10:04:40;98906.06;;;8.96;66.69
36242;BME280;22283;42.748;12.732;2024-02-14T10:09:41;98904.81;;;9.19;65.81
36242;BME280;22283;42.748;12.732;2024-02-14T10:14:42;98910.75;;;9.38;62.57
36242;BME280;22283;42.748;12.732;2024-02-14T10:19:43;98897.47;;;9.40;63.84
36242;BME280;22283;42.748;12.732;2024-02-14T10:24:46;98904.63;;;9.53;63.18
36242;BME280;22283;42.748;12.732;2024-02-14T10:29:46;98906.31;;;9.70;62.83
36242;BME280;22283;42.748;12.732;2024-02-14T10:34:47;98910.69;;;9.85;61.96
36242;BME280;22283;42.748;12.732;2024-02-14T10:39:49;98892.88;;;9.89;60.41
36242;BME280;22283;42.748;12.732;2024-02-14T10:44:52;98889.75;;;10.13;62.16
36242;BME280;22283;42.748;12.732;2024-02-14T10:49:55;98881.03;;;10.26;63.25
36242;BME280;22283;42.748;12.732;2024-02-14T10:54:58;98873.09;;;10.41;62.66
36242;BME280;22283;42.748;12.732;2024-02-14T11:00:02;98875.47;;;10.59;59.48
36242;BME280;22283;42.748;12.732;2024-02-14T11:05:05;98865.38;;;10.66;58.89
36242;BME280;22283;42.748;12.732;2024-02-14T11:10:07;98858.56;;;10.91;56.26
36242;BME280;22283;42.748;12.732;2024-02-14T11:15:22;98841.88;;;11.03;53.92
36242;BME280;22283;42.748;12.732;2024-02-14T11:20:31;98854.88;;;11.20;52.62
36242;BME280;22283;42.748;12.732;2024-02-14T11:25:34;98849.22;;;11.26;50.43
36242;BME280;22283;42.748;12.732;2024-02-14T11:30:35;98836.84;;;11.40;50.22
36242;BME280;22283;42.748;12.732;2024-02-14T11:35:35;98844.00;;;11.52;53.15
36242;BME280;22283;42.748;12.732;2024-02-14T11:40:38;98835.66;;;11.58;52.31
36242;BME280;22283;42.748;12.732;2024-02-14T11:45:43;98837.81;;;11.66;53.07
36242;BME280;22283;42.748;12.732;2024-02-14T11:50:45;98830.19;;;11.74;52.55
36242;BME280;22283;42.748;12.732;2024-02-14T11:55:46;98835.16;;;11.93;51.34
36242;BME280;22283;42.748;12.732;2024-02-14T12:00:49;98824.22;;;11.97;51.38
36242;BME280;22283;42.748;12.732;2024-02-14T12:05:51;98821.19;;;12.16;49.95
36242;BME280;22283;42.748;12.732;2024-02-14T12:10:53;98830.63;;;12.20;49.31
36242;BME280;22283;42.748;12.732;2024-02-14T12:15:53;98814.28;;;12.26;49.99
36242;BME280;22283;42.748;12.732;2024-02-14T12:21:03;98808.63;;;12.31;48.78
36242;BME280;22283;42.748;12.732;2024-02-14T12:26:08;98787.13;;;12.36;49.49
36242;BME280;22283;42.748;12.732;2024-02-14T12:31:22;98800.88;;;12.53;50.47
36242;BME280;22283;42.748;12.732;2024-02-14T12:36:22;98792.19;;;12.51;50.66
36242;BME280;22283;42.748;12.732;2024-02-14T12:41:23;98793.97;;;12.51;50.57
36242;BME280;22283;42.748;12.732;2024-02-14T12:46:26;98790.81;;;12.46;51.10
36242;BME280;22283;42.748;12.732;2024-02-14T12:51:27;98780.28;;;12.57;50.89
36242;BME280;22283;42.748;12.732;2024-02-14T12:56:28;98765.50;;;12.66;51.45
36242;BME280;22283;42.748;12.732;2024-02-14T13:01:29;98771.69;;;12.90;50.16
36242;BME280;22283;42.748;12.732;2024-02-14T13:06:30;98764.25;;;12.95;49.80
36242;BME280;22283;42.748;12.732;2024-02-14T13:11:31;98749.59;;;12.90;48.71
36242;BME280;22283;42.748;12.732;2024-02-14T13:16:32;98764.03;;;12.98;48.78
36242;BME280;22283;42.748;12.732;2024-02-14T13:21:33;98747.69;;;12.92;48.36
36242;BME280;22283;42.748;12.732;2024-02-14T13:26:34;98755.78;;;13.14;47.58
36242;BME280;22283;42.748;12.732;2024-02-14T13:31:34;98752.69;;;13.20;46.87
36242;BME280;22283;42.748;12.732;2024-02-14T13:36:35;98748.53;;;13.29;46.04
36242;BME280;22283;42.748;12.732;2024-02-14T13:41:35;98736.31;;;13.26;45.72
36242;BME280;22283;42.748;12.732;2024-02-14T13:46:38;98747.88;;;13.49;49.95
36242;BME280;22283;42.748;12.732;2024-02-14T13:51:43;98734.94;;;13.45;44.68
36242;BME280;22283;42.748;12.732;2024-02-14T13:56:44;98738.78;;;13.41;43.85
36242;BME280;22283;42.748;12.732;2024-02-14T14:01:45;98738.91;;;13.39;44.53
36242;BME280;22283;42.748;12.732;2024-02-14T14:06:49;98720.22;;;13.52;44.31
36242;BME280;22283;42.748;12.732;2024-02-14T14:11:50;98718.72;;;13.37;43.51
36242;BME280;22283;42.748;12.732;2024-02-14T14:16:52;98718.59;;;13.38;43.29
36242;BME280;22283;42.748;12.732;2024-02-14T14:21:53;98728.38;;;13.38;43.82
36242;BME280;22283;42.748;12.732;2024-02-14T14:26:55;98726.97;;;13.45;43.42
36242;BME280;22283;42.748;12.732;2024-02-14T14:31:55;98724.53;;;13.42;42.89
36242;BME280;22283;42.748;12.732;2024-02-14T14:36:56;98723.31;;;13.35;43.72
36242;BME280;22283;42.748;12.732;2024-02-14T14:41:57;98736.13;;;13.41;44.31
36242;BME280;22283;42.748;12.732;2024-02-14T14:46:58;98736.03;;;13.53;44.07
36242;BME280;22283;42.748;12.732;2024-02-14T14:51:58;98737.09;;;13.40;44.17
36242;BME280;22283;42.748;12.732;2024-02-14T14:56:59;98744.78;;;13.32;44.66
36242;BME280;22283;42.748;12.732;2024-02-14T15:02:04;98745.16;;;13.27;44.45
36242;BME280;22283;42.748;12.732;2024-02-14T15:07:05;98748.66;;;13.27;44.49
36242;BME280;22283;42.748;12.732;2024-02-14T15:12:06;98745.44;;;13.22;44.71
36242;BME280;22283;42.748;12.732;2024-02-14T15:17:07;98752.91;;;13.17;47.50
36242;BME280;22283;42.748;12.732;2024-02-14T15:22:08;98747.22;;;13.11;45.83
36242;BME280;22283;42.748;12.732;2024-02-14T15:27:09;98750.66;;;13.00;46.88
36242;BME280;22283;42.748;12.732;2024-02-14T15:32:11;98749.59;;;12.90;45.84
36242;BME280;22283;42.748;12.732;2024-02-14T15:37:30;98756.34;;;12.70;48.28
36242;BME280;22283;42.748;12.732;2024-02-14T15:42:30;98746.13;;;12.27;50.60
36242;BME280;22283;42.748;12.732;2024-02-14T15:47:31;98749.97;;;11.85;51.62
36242;BME280;22283;42.748;12.732;2024-02-14T15:52:32;98743.53;;;11.49;52.28
36242;BME280;22283;42.748;12.732;2024-02-14T15:57:32;98748.03;;;11.21;52.95
36242;BME280;22283;42.748;12.732;2024-02-14T16:02:36;98755.66;;;10.99;53.97
36242;BME280;22283;42.748;12.732;2024-02-14T16:07:37;98761.75;;;10.72;55.08
36242;BME280;22283;42.748;12.732;2024-02-14T16:12:37;98774.66;;;10.50;56.13
36242;BME280;22283;42.748;12.732;2024-02-14T16:17:38;98785.81;;;10.26;59.29
36242;BME280;22283;42.748;12.732;2024-02-14T16:22:39;98800.69;;;9.99;63.21
36242;BME280;22283;42.748;12.732;2024-02-14T16:27:43;98798.72;;;9.72;68.04
36242;BME280;22283;42.748;12.732;2024-02-14T16:32:45;98801.31;;;9.58;69.47
36242;BME280;22283;42.748;12.732;2024-02-14T16:37:47;98808.41;;;9.27;71.89
36242;BME280;22283;42.748;12.732;2024-02-14T16:42:48;98806.38;;;9.01;72.70
36242;BME280;22283;42.748;12.732;2024-02-14T16:47:48;98820.84;;;8.94;74.00
36242;BME280;22283;42.748;12.732;2024-02-14T16:52:49;98828.16;;;8.73;75.23
36242;BME280;22283;42.748;12.732;2024-02-14T16:57:50;98846.47;;;8.43;78.08
36242;BME280;22283;42.748;12.732;2024-02-14T17:02:50;98855.47;;;8.21;79.65
36242;BME280;22283;42.748;12.732;2024-02-14T17:07:51;98849.13;;;7.91;80.70
36242;BME280;22283;42.748;12.732;2024-02-14T17:12:51;98851.94;;;7.70;82.49
36242;BME280;22283;42.748;12.732;2024-02-14T17:17:52;98840.44;;;7.54;84.30
36242;BME280;22283;42.748;12.732;2024-02-14T17:22:52;98838.91;;;7.50;86.75
36242;BME280;22283;42.748;12.732;2024-02-14T17:27:53;98833.50;;;7.53;85.66
36242;BME280;22283;42.748;12.732;2024-02-14T17:32:54;98856.53;;;7.48;86.52
36242;BME280;22283;42.748;12.732;2024-02-14T17:37:58;98856.25;;;7.18;87.20
36242;BME280;22283;42.748;12.732;2024-02-14T17:42:58;98860.91;;;6.94;88.46
36242;BME280;22283;42.748;12.732;2024-02-14T17:47:59;98859.91;;;6.77;89.95
36242;BME280;22283;42.748;12.732;2024-02-14T17:53:00;98870.97;;;6.65;91.31
36242;BME280;22283;42.748;12.732;2024-02-14T17:58:01;98882.63;;;6.59;92.39
36242;BME280;22283;42.748;12.732;2024-02-14T18:03:03;98875.22;;;6.49;92.50
36242;BME280;22283;42.748;12.732;2024-02-14T18:08:04;98871.69;;;6.50;92.40
36242;BME280;22283;42.748;12.732;2024-02-14T18:13:05;98877.31;;;6.40;93.82
36242;BME280;22283;42.748;12.732;2024-02-14T18:18:06;98863.81;;;6.29;93.00
36242;BME280;22283;42.748;12.732;2024-02-14T18:23:06;98865.41;;;6.13;94.35
36242;BME280;22283;42.748;12.732;2024-02-14T18:28:07;98884.19;;;6.04;95.26
36242;BME280;22283;42.748;12.732;2024-02-14T18:33:08;98863.16;;;5.83;95.38
36242;BME280;22283;42.748;12.732;2024-02-14T18:38:11;98872.97;;;6.00;95.35
36242;BME280;22283;42.748;12.732;2024-02-14T18:43:13;98869.59;;;5.97;96.38
36242;BME280;22283;42.748;12.732;2024-02-14T18:48:13;98870.28;;;5.80;96.86
36242;BME280;22283;42.748;12.732;2024-02-14T18:53:15;98852.09;;;5.55;98.26
36242;BME280;22283;42.748;12.732;2024-02-14T18:58:16;98869.28;;;5.62;99.08
36242;BME280;22283;42.748;12.732;2024-02-14T19:03:16;98875.84;;;5.52;99.60
36242;BME280;22283;42.748;12.732;2024-02-14T19:08:17;98891.88;;;5.44;100.00
36242;BME280;22283;42.748;12.732;2024-02-14T19:13:18;98888.91;;;5.31;100.00
36242;BME280;22283;42.748;12.732;2024-02-14T19:18:22;98889.56;;;5.36;100.00
36242;BME280;22283;42.748;12.732;2024-02-14T19:23:23;98890.22;;;5.41;100.00
36242;BME280;22283;42.748;12.732;2024-02-14T19:28:24;98883.16;;;5.43;100.00
36242;BME280;22283;42.748;12.732;2024-02-14T19:33:24;98897.44;;;5.36;100.00
36242;BME280;22283;42.748;12.732;2024-02-14T19:38:26;98894.50;;;5.22;100.00
36242;BME280;22283;42.748;12.732;2024-02-14T19:43:29;98875.72;;;5.11;100.00
36242;BME280;22283;42.748;12.732;2024-02-14T19:48:29;98904.88;;;5.03;100.00
36242;BME280;22283;42.748;12.732;2024-02-14T19:53:32;98917.72;;;4.87;100.00
36242;BME280;22283;42.748;12.732;2024-02-14T19:58:34;98916.13;;;4.83;100.00
36242;BME280;22283;42.748;12.732;2024-02-14T20:03:36;98899.81;;;4.75;100.00
36242;BME280;22283;42.748;12.732;2024-02-14T20:08:41;98903.78;;;4.62;100.00
36242;BME280;22283;42.748;12.732;2024-02-14T20:13:42;98907.22;;;4.64;100.00
36242;BME280;22283;42.748;12.732;2024-02-14T20:18:42;98890.34;;;4.48;100.00
36242;BME280;22283;42.748;12.732;2024-02-14T20:23:43;98903.22;;;4.54;100.00
36242;BME280;22283;42.748;12.732;2024-02-14T20:28:44;98900.94;;;4.44;100.00
36242;BME280;22283;42.748;12.732;2024-02-14T20:33:45;98906.44;;;4.37;100.00
36242;BME280;22283;42.748;12.732;2024-02-14T20:38:45;98891.19;;;4.23;100.00
36242;BME280;22283;42.748;12.732;2024-02-14T20:43:46;98901.47;;;4.29;100.00
36242;BME280;22283;42.748;12.732;2024-02-14T20:48:51;98910.25;;;4.28;100.00
36242;BME280;22283;42.748;12.732;2024-02-14T20:53:53;98914.16;;;4.16;100.00
36242;BME280;22283;42.748;12.732;2024-02-14T20:58:53;98898.47;;;4.15;100.00
36242;BME280;22283;42.748;12.732;2024-02-14T21:03:54;98907.34;;;4.36;100.00
36242;BME280;22283;42.748;12.732;2024-02-14T21:08:56;98899.78;;;4.28;100.00
36242;BME280;22283;42.748;12.732;2024-02-14T21:13:56;98902.38;;;4.28;100.00
36242;BME280;22283;42.748;12.732;2024-02-14T21:18:57;98900.81;;;4.23;100.00
36242;BME280;22283;42.748;12.732;2024-02-14T21:23:57;98902.97;;;4.11;100.00
36242;BME280;22283;42.748;12.732;2024-02-14T21:28:58;98909.66;;;4.20;100.00
36242;BME280;22283;42.748;12.732;2024-02-14T21:33:58;98907.44;;;4.08;100.00
36242;BME280;22283;42.748;12.732;2024-02-14T21:38:59;98887.31;;;3.85;100.00
36242;BME280;22283;42.748;12.732;2024-02-14T21:44:00;98906.81;;;3.76;100.00
36242;BME280;22283;42.748;12.732;2024-02-14T21:49:00;98894.00;;;3.67;100.00
36242;BME280;22283;42.748;12.732;2024-02-14T21:54:06;98911.22;;;3.74;100.00
36242;BME280;22283;42.748;12.732;2024-02-14T21:59:06;98903.06;;;3.57;100.00
36242;BME280;22283;42.748;12.732;2024-02-14T22:04:07;98904.06;;;3.53;100.00
36242;BME280;22283;42.748;12.732;2024-02-14T22:09:08;98903.00;;;3.58;100.00
36242;BME280;22283;42.748;12.732;2024-02-14T22:14:09;98914.41;;;3.56;100.00
36242;BME280;22283;42.748;12.732;2024-02-14T22:19:10;98916.16;;;3.57;100.00
36242;BME280;22283;42.748;12.732;2024-02-14T22:24:13;98915.94;;;3.63;100.00
36242;BME280;22283;42.748;12.732;2024-02-14T22:29:13;98900.72;;;3.48;100.00
36242;BME280;22283;42.748;12.732;2024-02-14T22:34:13;98907.88;;;3.42;100.00
36242;BME280;22283;42.748;12.732;2024-02-14T22:39:14;98901.34;;;3.29;100.00
36242;BME280;22283;42.748;12.732;2024-02-14T22:44:15;98901.44;;;3.26;100.00
36242;BME280;22283;42.748;12.732;2024-02-14T22:49:16;98900.84;;;3.16;100.00
36242;BME280;22283;42.748;12.732;2024-02-14T22:54:16;98913.03;;;3.17;100.00
36242;BME280;22283;42.748;12.732;2024-02-14T22:59:17;98906.06;;;3.16;100.00
36242;BME280;22283;42.748;12.732;2024-02-14T23:04:18;98909.41;;;2.93;100.00
36242;BME280;22283;42.748;12.732;2024-02-14T23:09:18;98923.34;;;2.92;100.00
36242;BME280;22283;42.748;12.732;2024-02-14T23:14:19;98923.53;;;2.86;100.00
36242;BME280;22283;42.748;12.732;2024-02-14T23:19:20;98920.94;;;2.86;100.00
36242;BME280;22283;42.748;12.732;2024-02-14T23:24:20;98935.97;;;2.78;100.00
36242;BME280;22283;42.748;12.732;2024-02-14T23:29:21;98937.78;;;2.76;100.00
36242;BME280;22283;42.748;12.732;2024-02-14T23:34:22;98920.88;;;2.58;100.00
36242;BME280;22283;42.748;12.732;2024-02-14T23:39:23;98935.13;;;2.78;100.00
36242;BME280;22283;42.748;12.732;2024-02-14T23:44:24;98937.41;;;2.59;100.00
36242;BME280;22283;42.748;12.732;2024-02-14T23:49:25;98925.69;;;2.41;100.00
36242;BME280;22283;42.748;12.732;2024-02-14T23:54:26;98947.28;;;2.47;100.00
36242;BME280;22283;42.748;12.732;2024-02-14T23:59:28;98935.63;;;2.28;100.00
